LKDK weather

Dvůr Králové Nad Labem Airport
Dvůr Králové Nad Labem, Hradec Králové Region, Czechia

Public forecast

Using degrees Celsius for public forecast. Weather courtesy of forecast.io.

METAR (pilot weather report)

Closest report is Pardubice Airport, 24.4 nm (45.1 km) S. Retrieved 2019/05/21 02:00 UTC (24 minutes ago):

LKPD 210200Z VRB01KT 9999 FEW019 11/09 Q1003 RMK BLU

TAF (pilot weather forecast)

Closest forecast is Pardubice Airport, 24.4 nm (45.1 km) S. Retrieved 2019/05/21 00:06 UTC (2 hours ago):

TAF LKPD 202300Z 2100/2200 11006KT CAVOK PROB30 TEMPO 2100/2106 5000 BR BKN020 TEMPO 2107/2117 BKN035 PROB40 TEMPO 2109/2118 7000 SHRA BKN030TCU BECMG 2113/2116 28006KT